Time;durP1;ratioP1;P1;durP2;ratioP2;P2;SDS_P1;SDS_P2;PMS_P1;PMS_P2;Temp;Humidity;BMP_temperature;BMP_pressure;BME280_temperature;BME280_humidity;BME280_pressure;Samples;Min_cycle;Max_cycle;Signal;HPM_P1;HPM_P2
2021/04/18 00:00:26;;;;;;;4.4;3.1;;;;;;;5.97;73.2959;938.3184;;;;
2021/04/18 00:02:51;;;;;;;5.9;3.7;;;;;;;6.02;73.18066;938.377;;;;
2021/04/18 00:05:16;;;;;;;5.9;4.1;;;;;;;6.07;72.62402;938.3703;;;;
2021/04/18 00:07:43;;;;;;;4.4;3;;;;;;;6.11;72.25684;938.2924;;;;
2021/04/18 00:10:09;;;;;;;5.6;3.6;;;;;;;6.1;72.27832;938.2313;;;;
2021/04/18 00:12:40;;;;;;;5.5;4.1;;;;;;;6.07;72.62402;938.288;;;;
2021/04/18 00:15:24;;;;;;;7.1;3.6;;;;;;;6.06;72.79004;938.257;;;;
2021/04/18 00:17:51;;;;;;;6.5;4;;;;;;;6.08;72.66895;938.2512;;;;
2021/04/18 00:20:18;;;;;;;5.5;4;;;;;;;6.13;72.46289;938.2081;;;;
2021/04/18 00:22:44;;;;;;;6.6;4.3;;;;;;;6.14;72.25;938.1658;;;;
2021/04/18 00:25:12;;;;;;;5.8;3.4;;;;;;;6.06;72.92676;938.1583;;;;
2021/04/18 00:27:39;;;;;;;6.2;3.5;;;;;;;5.79;75.35449;938.1486;;;;
2021/04/18 00:30:04;;;;;;;7.3;3.9;;;;;;;5.53;76.24512;938.1286;;;;
2021/04/18 00:32:32;;;;;;;7.6;4;;;;;;;5.4;76.9082;938.1057;;;;
2021/04/18 00:34:58;;;;;;;7.6;4.4;;;;;;;5.39;76.81641;938.1506;;;;
2021/04/18 00:37:23;;;;;;;7.6;4.4;;;;;;;5.32;77.27734;938.1398;;;;
2021/04/18 00:39:49;;;;;;;4.8;3.9;;;;;;;5.41;76.75195;938.1583;;;;
2021/04/18 00:42:14;;;;;;;10.3;4;;;;;;;5.47;77.20508;938.0678;;;;
2021/04/18 00:44:46;;;;;;;8.1;4;;;;;;;5.52;76.83008;938.0858;;;;
2021/04/18 00:47:15;;;;;;;5.7;4.6;;;;;;;5.59;76.33496;938.0963;;;;
2021/04/18 00:49:40;;;;;;;6.6;4.1;;;;;;;5.66;75.73633;938.0441;;;;
2021/04/18 00:52:08;;;;;;;8.1;3.7;;;;;;;5.71;75.63379;938.081;;;;
2021/04/18 00:54:38;;;;;;;5.6;3.9;;;;;;;5.65;75.52051;938.1054;;;;
2021/04/18 00:57:03;;;;;;;4.5;3.2;;;;;;;5.76;75.37207;938.0799;;;;
2021/04/18 00:59:30;;;;;;;6.3;4.4;;;;;;;5.84;74.95703;938.1046;;;;
2021/04/18 01:01:56;;;;;;;7.5;4.4;;;;;;;5.87;74.84766;938.038;;;;
2021/04/18 01:04:23;;;;;;;6.2;3.8;;;;;;;5.93;74.35156;938.0109;;;;
2021/04/18 01:06:48;;;;;;;9.6;4.8;;;;;;;5.91;74.50488;938.0569;;;;
2021/04/18 01:09:15;;;;;;;7.7;4;;;;;;;5.92;74.09961;938.0468;;;;
2021/04/18 01:11:40;;;;;;;9.2;4.3;;;;;;;5.92;74.15625;937.9861;;;;
2021/04/18 01:14:11;;;;;;;8.5;4.9;;;;;;;5.88;74.39844;937.9761;;;;
2021/04/18 01:16:46;;;;;;;11.1;4.6;;;;;;;5.85;74.70898;937.9633;;;;
2021/04/18 01:19:12;;;;;;;7.1;3.8;;;;;;;5.9;74.58203;937.9775;;;;
2021/04/18 01:21:37;;;;;;;7.1;4.1;;;;;;;5.9;74.25488;937.9514;;;;
2021/04/18 01:24:08;;;;;;;7;5.2;;;;;;;5.87;74.19336;937.9282;;;;
2021/04/18 01:26:39;;;;;;;5.2;3.2;;;;;;;5.91;74.62891;937.8514;;;;
2021/04/18 01:29:10;;;;;;;7.7;4.1;;;;;;;5.93;74.20313;937.8408;;;;
2021/04/18 01:31:35;;;;;;;6.8;3.5;;;;;;;5.94;74.17285;937.9495;;;;
2021/04/18 01:34:06;;;;;;;7.6;3.8;;;;;;;5.93;74.38379;937.9055;;;;
2021/04/18 01:36:35;;;;;;;6.2;4.6;;;;;;;5.88;74.05859;937.8865;;;;
2021/04/18 01:39:05;;;;;;;7.1;3.9;;;;;;;5.91;73.87109;937.8734;;;;
2021/04/18 01:41:36;;;;;;;7.8;4.9;;;;;;;5.85;74.24512;937.8748;;;;
2021/04/18 01:44:03;;;;;;;7.5;4.5;;;;;;;5.68;74.9043;937.8879;;;;
2021/04/18 01:46:35;;;;;;;6.5;4.4;;;;;;;5.58;74.80957;937.8853;;;;
2021/04/18 01:49:00;;;;;;;5.5;3.9;;;;;;;5.59;74.81152;937.7766;;;;
2021/04/18 01:51:33;;;;;;;7.4;4.6;;;;;;;5.69;74.64648;937.8337;;;;
2021/04/18 01:54:08;;;;;;;6.7;4.4;;;;;;;5.74;75.1543;937.8693;;;;
2021/04/18 01:56:37;;;;;;;7;3.6;;;;;;;5.77;74.57031;937.783;;;;
2021/04/18 01:59:05;;;;;;;6.1;4;;;;;;;5.77;74.27637;937.7483;;;;
2021/04/18 02:01:30;;;;;;;5.3;3.3;;;;;;;5.63;74.8291;937.8758;;;;
2021/04/18 02:04:04;;;;;;;6.2;3.9;;;;;;;5.76;74.28809;937.8517;;;;
2021/04/18 02:06:33;;;;;;;5.8;3.9;;;;;;;5.68;74.83691;937.8431;;;;
2021/04/18 02:09:06;;;;;;;7.4;4.2;;;;;;;5.7;75.16895;937.8318;;;;
2021/04/18 02:11:34;;;;;;;7.1;4.5;;;;;;;5.72;74.93457;937.8049;;;;
2021/04/18 02:14:03;;;;;;;4.9;4;;;;;;;5.67;74.92578;937.7654;;;;
2021/04/18 02:16:48;;;;;;;7.9;4.2;;;;;;;5.61;75.50293;937.7908;;;;
2021/04/18 02:19:13;;;;;;;7.1;4.4;;;;;;;5.6;75.19531;937.8177;;;;
2021/04/18 02:21:38;;;;;;;6.7;3.8;;;;;;;5.67;75.28711;937.8159;;;;
2021/04/18 02:24:05;;;;;;;6.6;4;;;;;;;5.74;75.58203;937.8455;;;;
2021/04/18 02:26:30;;;;;;;6.6;4.6;;;;;;;5.74;74.73438;937.8565;;;;
2021/04/18 02:28:58;;;;;;;8.4;4.4;;;;;;;5.68;74.58789;937.7846;;;;
2021/04/18 02:31:23;;;;;;;5.9;4.8;;;;;;;5.71;73.9834;937.8256;;;;
2021/04/18 02:33:50;;;;;;;8.5;4.7;;;;;;;5.72;74.38184;937.8356;;;;
2021/04/18 02:36:15;;;;;;;5.9;4.2;;;;;;;5.78;73.84863;937.8354;;;;
2021/04/18 02:38:42;;;;;;;7;4.6;;;;;;;5.82;73.72168;937.8496;;;;
2021/04/18 02:41:07;;;;;;;7.1;4.5;;;;;;;5.8;74.08008;937.8424;;;;
2021/04/18 02:43:35;;;;;;;4.9;3.8;;;;;;;5.79;74.10059;937.8373;;;;
2021/04/18 02:46:00;;;;;;;7.6;4.2;;;;;;;5.6;74.9707;937.8439;;;;
2021/04/18 02:48:27;;;;;;;10.1;5.1;;;;;;;5.72;74.66406;937.8497;;;;
2021/04/18 02:50:53;;;;;;;8.2;5.1;;;;;;;5.77;74.30078;937.8377;;;;
2021/04/18 02:53:20;;;;;;;10;4.6;;;;;;;5.6;74.49707;937.817;;;;
2021/04/18 02:55:46;;;;;;;8.7;4.5;;;;;;;5.55;75.13086;937.8211;;;;
2021/04/18 02:58:13;;;;;;;9.7;5.2;;;;;;;5.64;74.87598;937.764;;;;
2021/04/18 03:00:38;;;;;;;6.7;4.5;;;;;;;5.56;75.05469;937.808;;;;
2021/04/18 03:03:07;;;;;;;6.5;5;;;;;;;5.7;74.5127;937.7511;;;;
2021/04/18 03:05:32;;;;;;;5.3;4.4;;;;;;;5.7;74.5127;937.6832;;;;
2021/04/18 03:08:01;;;;;;;6.6;4.8;;;;;;;5.68;74.18359;937.7737;;;;
2021/04/18 03:10:30;;;;;;;7.8;4.4;;;;;;;5.57;74.90918;937.787;;;;
2021/04/18 03:12:58;;;;;;;10.2;5.5;;;;;;;5.5;75.04395;937.741;;;;
2021/04/18 03:15:31;;;;;;;7.5;5.6;;;;;;;5.57;74.90918;937.7539;;;;
2021/04/18 03:17:57;;;;;;;5.4;4;;;;;;;5.6;74.7793;937.6496;;;;
2021/04/18 03:20:27;;;;;;;6.7;4.4;;;;;;;5.58;75.04492;937.7721;;;;
2021/04/18 03:22:56;;;;;;;8.6;4.8;;;;;;;5.63;74.70605;937.8;;;;
2021/04/18 03:25:21;;;;;;;8.7;4.3;;;;;;;5.61;74.6582;937.7853;;;;
2021/04/18 03:27:51;;;;;;;7;4.4;;;;;;;5.63;74.5127;937.8189;;;;
2021/04/18 03:30:22;;;;;;;5;4;;;;;;;5.53;75.01465;937.8111;;;;
2021/04/18 03:32:47;;;;;;;6.4;4.4;;;;;;;5.52;75.22754;937.7943;;;;
2021/04/18 03:35:17;;;;;;;7;4.6;;;;;;;5.55;75.09668;937.803;;;;
2021/04/18 03:37:47;;;;;;;7.2;5.2;;;;;;;5.44;76.00293;937.8251;;;;
2021/04/18 03:40:12;;;;;;;9.5;4.5;;;;;;;5.57;75.47266;937.7933;;;;
2021/04/18 03:42:37;;;;;;;8.4;4.6;;;;;;;5.62;75.22266;937.7861;;;;
2021/04/18 03:45:11;;;;;;;9.6;4.9;;;;;;;5.52;75.60938;937.7673;;;;
2021/04/18 03:47:37;;;;;;;6.1;4.3;;;;;;;5.53;75.5332;937.7559;;;;
2021/04/18 03:50:09;;;;;;;6.3;4.6;;;;;;;5.36;76.22559;937.7311;;;;
2021/04/18 03:52:34;;;;;;;7.3;4.2;;;;;;;5.12;77.32031;937.7311;;;;
2021/04/18 03:55:04;;;;;;;7.6;5.2;;;;;;;5.25;76.96191;937.6066;;;;
2021/04/18 03:57:29;;;;;;;8.1;5;;;;;;;5.33;76.68262;937.5655;;;;
2021/04/18 03:59:58;;;;;;;7.8;4.9;;;;;;;5.39;76.21875;937.6505;;;;
2021/04/18 04:02:45;;;;;;;7.8;5.4;;;;;;;5.28;76.75195;937.601;;;;
2021/04/18 04:05:18;;;;;;;6.8;4.9;;;;;;;5.38;76.64551;937.6022;;;;
2021/04/18 04:07:47;;;;;;;8.9;5.1;;;;;;;5.49;76.29297;937.5692;;;;
2021/04/18 04:10:12;;;;;;;7;4.5;;;;;;;5.51;76.24121;937.6259;;;;
2021/04/18 04:12:42;;;;;;;8.3;4.3;;;;;;;5.55;76.12207;937.6259;;;;
2021/04/18 04:15:20;;;;;;;10.2;6.1;;;;;;;5.54;76.4043;937.6242;;;;
2021/04/18 04:17:51;;;;;;;9;5;;;;;;;5.53;76.29004;937.6184;;;;
2021/04/18 04:20:22;;;;;;;7.7;5.4;;;;;;;5.61;75.78516;937.6107;;;;
2021/04/18 04:22:47;;;;;;;9.2;5.4;;;;;;;5.64;75.55273;937.6099;;;;
2021/04/18 04:25:14;;;;;;;7.6;4.7;;;;;;;5.62;75.5498;937.6655;;;;
2021/04/18 04:27:46;;;;;;;5.5;4.2;;;;;;;5.66;75.5127;937.6878;;;;
2021/04/18 04:30:17;;;;;;;6.1;4.4;;;;;;;5.64;75.49609;937.7441;;;;
2021/04/18 04:32:45;;;;;;;7.2;4.9;;;;;;;5.51;76.24121;937.7302;;;;
2021/04/18 04:35:10;;;;;;;6.7;4.7;;;;;;;5.49;76.64453;937.6767;;;;
2021/04/18 04:37:39;;;;;;;6.5;4.6;;;;;;;5.47;76.91016;937.7203;;;;
2021/04/18 04:40:04;;;;;;;7.5;4.9;;;;;;;5.49;76.91406;937.698;;;;
2021/04/18 04:42:29;;;;;;;5.6;4.6;;;;;;;5.46;77.19043;937.6512;;;;
2021/04/18 04:44:57;;;;;;;8.9;5;;;;;;;5.51;76.91895;937.662;;;;
2021/04/18 04:47:22;;;;;;;6.4;4.2;;;;;;;5.55;76.72168;937.7012;;;;
2021/04/18 04:49:49;;;;;;;6.4;5.1;;;;;;;5.55;76.55273;937.6442;;;;
2021/04/18 04:52:15;;;;;;;6;4.4;;;;;;;5.55;76.49609;937.7642;;;;
2021/04/18 04:54:41;;;;;;;9;4.7;;;;;;;5.63;76.3418;937.6666;;;;
2021/04/18 04:57:07;;;;;;;8.5;4.9;;;;;;;5.73;75.75098;937.6976;;;;
2021/04/18 04:59:34;;;;;;;7.4;4.4;;;;;;;5.78;75.76855;937.7817;;;;
2021/04/18 05:01:59;;;;;;;6.9;4.9;;;;;;;5.67;76.07715;937.7883;;;;
2021/04/18 05:04:27;;;;;;;5;4.5;;;;;;;5.65;75.94922;937.7917;;;;
2021/04/18 05:06:52;;;;;;;7;4.2;;;;;;;5.72;75.80469;937.8853;;;;
2021/04/18 05:09:19;;;;;;;6.6;4.1;;;;;;;5.68;75.8877;937.9064;;;;
2021/04/18 05:11:45;;;;;;;7.4;5;;;;;;;5.63;76.31836;937.9294;;;;
2021/04/18 05:14:13;;;;;;;5.4;3.5;;;;;;;5.75;76.10254;937.9453;;;;
2021/04/18 05:16:48;;;;;;;7.8;4.9;;;;;;;5.76;75.76563;937.9897;;;;
2021/04/18 05:19:13;;;;;;;7.7;4.7;;;;;;;5.74;76.30566;937.9886;;;;
2021/04/18 05:21:43;;;;;;;6.5;4.2;;;;;;;5.84;76.0625;938.0206;;;;
2021/04/18 05:24:15;;;;;;;6.3;4.4;;;;;;;5.86;75.55762;937.9603;;;;
2021/04/18 05:26:45;;;;;;;7.5;4.3;;;;;;;5.75;76.29492;937.8971;;;;
2021/04/18 05:29:18;;;;;;;7.8;4.9;;;;;;;5.78;76.03027;938.0458;;;;
2021/04/18 05:31:49;;;;;;;6.8;4.7;;;;;;;5.8;75.95215;938.0659;;;;
2021/04/18 05:34:20;;;;;;;7.5;4.6;;;;;;;5.89;75.62988;938.1017;;;;
2021/04/18 05:36:49;;;;;;;9.3;4.1;;;;;;;5.97;75.33887;938.0701;;;;
2021/04/18 05:39:19;;;;;;;6.3;4.1;;;;;;;5.93;75.60352;938.1;;;;
2021/04/18 05:41:44;;;;;;;7.2;4.1;;;;;;;6.01;75.33594;938.1317;;;;
2021/04/18 05:44:14;;;;;;;6;4.2;;;;;;;6.01;75.2002;938.1783;;;;
2021/04/18 05:46:43;;;;;;;8.8;5;;;;;;;6.08;74.9873;938.1809;;;;
2021/04/18 05:49:08;;;;;;;6.2;4.1;;;;;;;5.97;75.12598;938.1833;;;;
2021/04/18 05:51:38;;;;;;;6.8;4.9;;;;;;;6.06;74.90332;938.1677;;;;
2021/04/18 05:54:03;;;;;;;6;4.3;;;;;;;5.82;75.39258;938.2478;;;;
2021/04/18 05:56:33;;;;;;;8;4.7;;;;;;;5.92;75.83984;938.1915;;;;
2021/04/18 05:58:58;;;;;;;8.1;5.7;;;;;;;6.06;75.0498;938.265;;;;
2021/04/18 06:01:27;;;;;;;6.5;4.6;;;;;;;6.04;74.66406;938.1451;;;;
2021/04/18 06:03:56;;;;;;;5.6;4.5;;;;;;;6.06;74.97266;938.175;;;;
2021/04/18 06:06:21;;;;;;;8.2;5.1;;;;;;;6.05;75.18359;938.2046;;;;
2021/04/18 06:08:49;;;;;;;6.6;4.8;;;;;;;6.13;74.55371;938.1997;;;;
2021/04/18 06:11:20;;;;;;;6.3;4.7;;;;;;;6.27;73.92383;938.1655;;;;
2021/04/18 06:13:49;;;;;;;6.4;4.1;;;;;;;6.31;73.59082;938.1578;;;;
2021/04/18 06:16:24;;;;;;;6.9;4.3;;;;;;;6.36;73.65527;938.1495;;;;
2021/04/18 06:18:49;;;;;;;10.7;5.2;;;;;;;6.55;72.84082;938.1022;;;;
2021/04/18 06:21:14;;;;;;;8.6;5;;;;;;;6.62;72.35547;938.1454;;;;
2021/04/18 06:23:39;;;;;;;8;4.4;;;;;;;6.6;72.54297;938.1603;;;;
2021/04/18 06:26:04;;;;;;;6.1;4.1;;;;;;;6.78;71.89453;938.1379;;;;
2021/04/18 06:28:31;;;;;;;6.6;4.7;;;;;;;6.75;72.79492;938.173;;;;
2021/04/18 06:30:56;;;;;;;7.6;4.7;;;;;;;6.89;72.08203;938.1733;;;;
2021/04/18 06:33:23;;;;;;;6.8;5.5;;;;;;;6.98;71.58789;938.1025;;;;
2021/04/18 06:35:48;;;;;;;7;5.3;;;;;;;6.91;72.17773;938.1548;;;;
2021/04/18 06:38:15;;;;;;;5.5;4.6;;;;;;;6.57;73.61328;938.1637;;;;
2021/04/18 06:40:40;;;;;;;6.9;4.6;;;;;;;6.81;74.15137;938.0817;;;;
2021/04/18 06:43:08;;;;;;;4.9;4.2;;;;;;;6.86;72.61133;938.1133;;;;
2021/04/18 06:45:33;;;;;;;7.7;5;;;;;;;7.23;70.96191;938.0761;;;;
2021/04/18 06:48:01;;;;;;;6.4;4.5;;;;;;;7.62;68.91797;938.1039;;;;
2021/04/18 06:50:26;;;;;;;7.4;4.7;;;;;;;7.63;69.30469;937.9931;;;;
2021/04/18 06:52:56;;;;;;;5.8;4.6;;;;;;;7.89;67.71191;938.0595;;;;
2021/04/18 06:55:25;;;;;;;6.7;4.7;;;;;;;7.92;67.69336;938.0973;;;;
2021/04/18 06:57:50;;;;;;;8.2;4.9;;;;;;;8.01;68.06055;938.1389;;;;
2021/04/18 07:00:18;;;;;;;7.5;4.6;;;;;;;7.99;68.6582;938.1746;;;;
2021/04/18 07:02:46;;;;;;;7.1;4.5;;;;;;;8.22;67.03613;938.1152;;;;
2021/04/18 07:05:11;;;;;;;9.3;5.2;;;;;;;7.97;67.61133;938.095;;;;
2021/04/18 07:07:37;;;;;;;8.1;5.1;;;;;;;7.84;68.12305;938.125;;;;
2021/04/18 07:10:02;;;;;;;9.2;5.5;;;;;;;7.9;67.82813;938.1049;;;;
2021/04/18 07:12:27;;;;;;;6.9;4.8;;;;;;;8.11;67.22461;938.1027;;;;
2021/04/18 07:14:55;;;;;;;6.3;4.5;;;;;;;8.65;65.0918;938.0726;;;;
2021/04/18 07:17:31;;;;;;;6.1;3.9;;;;;;;8.68;64.67676;938.0946;;;;
2021/04/18 07:19:56;;;;;;;11.3;4.4;;;;;;;8.98;64.80078;938.074;;;;
2021/04/18 07:22:28;;;;;;;4.9;4.1;;;;;;;9.03;63.375;938.087;;;;
2021/04/18 07:24:56;;;;;;;6.5;4.2;;;;;;;9.02;63.25879;938.1052;;;;
2021/04/18 07:27:21;;;;;;;11.2;5.1;;;;;;;8.98;63.42383;938.0772;;;;
2021/04/18 07:29:50;;;;;;;6.8;4.4;;;;;;;9.33;62.49707;938.1099;;;;
2021/04/18 07:32:15;;;;;;;7.8;4.5;;;;;;;9.74;60.7666;938.1006;;;;
2021/04/18 07:34:40;;;;;;;10.9;4.1;;;;;;;9.49;60.68555;938.0892;;;;
2021/04/18 07:37:08;;;;;;;4.7;4;;;;;;;9.74;61.16504;938.0474;;;;
2021/04/18 07:39:33;;;;;;;6.5;4;;;;;;;9.25;62.17871;938.0921;;;;
2021/04/18 07:42:03;;;;;;;6.1;4;;;;;;;9;62.83691;937.9648;;;;
2021/04/18 07:44:31;;;;;;;6.9;5.1;;;;;;;8.72;63.73828;937.972;;;;
2021/04/18 07:46:56;;;;;;;5.3;3.6;;;;;;;8.66;64.20605;938.0188;;;;
2021/04/18 07:49:21;;;;;;;5.1;3.5;;;;;;;8.94;63.83887;938.0449;;;;
2021/04/18 07:51:49;;;;;;;7.2;4.6;;;;;;;9.22;63.38086;938.0392;;;;
2021/04/18 07:54:15;;;;;;;6.2;3.9;;;;;;;9.35;61.31543;938.0735;;;;
2021/04/18 07:56:41;;;;;;;10.8;4.2;;;;;;;9.72;59.51074;938.0201;;;;
2021/04/18 07:59:11;;;;;;;4.2;3.7;;;;;;;9.5;60.06152;938.0154;;;;
2021/04/18 08:01:45;;;;;;;6.5;4.3;;;;;;;9.88;58.99609;938.0031;;;;
2021/04/18 08:04:16;;;;;;;4.2;3.7;;;;;;;10.25;58.70508;937.9992;;;;
2021/04/18 08:06:48;;;;;;;5.9;4.2;;;;;;;10.48;57.29785;937.9738;;;;
2021/04/18 08:09:18;;;;;;;4.9;3.1;;;;;;;10.46;56.49512;937.9458;;;;
2021/04/18 08:11:43;;;;;;;5.5;3.5;;;;;;;10.34;58.22656;937.9492;;;;
2021/04/18 08:14:12;;;;;;;5.7;4.2;;;;;;;10.72;57.54688;937.8759;;;;
2021/04/18 08:17:00;;;;;;;5.3;3.4;;;;;;;11.01;55.86914;937.9102;;;;
2021/04/18 08:19:39;;;;;;;5.6;4.2;;;;;;;11.56;54.16797;937.8777;;;;
2021/04/18 08:22:05;;;;;;;6;3.2;;;;;;;11.81;53.52246;937.8969;;;;
2021/04/18 08:24:30;;;;;;;4.7;3.5;;;;;;;12.26;52.35254;937.8345;;;;
2021/04/18 08:26:57;;;;;;;4.6;3;;;;;;;12.49;49.78809;937.8351;;;;
2021/04/18 08:29:21;;;;;;;3.9;2.6;;;;;;;12.27;51.21777;937.8306;;;;
2021/04/18 08:31:47;;;;;;;4.8;3.1;;;;;;;12.53;49.86035;937.8472;;;;
2021/04/18 08:34:16;;;;;;;4.7;3.1;;;;;;;12.41;49.34277;937.8164;;;;
2021/04/18 08:36:41;;;;;;;4.4;3.3;;;;;;;12.2;50.0293;937.7878;;;;
2021/04/18 08:39:09;;;;;;;4.4;2.9;;;;;;;12.69;49.29297;937.7031;;;;
2021/04/18 08:41:34;;;;;;;8.6;3.6;;;;;;;11.95;50.55078;937.8235;;;;
2021/04/18 08:43:59;;;;;;;7.7;3.3;;;;;;;12.05;49.01465;937.8656;;;;
2021/04/18 08:46:25;;;;;;;3.8;2.9;;;;;;;12.48;49.23535;937.8423;;;;
2021/04/18 08:48:52;;;;;;;5.5;3.1;;;;;;;12.91;47.73438;937.8279;;;;
2021/04/18 08:51:17;;;;;;;3.2;2.4;;;;;;;12.68;47.43457;937.8373;;;;
2021/04/18 08:53:44;;;;;;;4.3;3.2;;;;;;;12.74;47.41797;937.8133;;;;
2021/04/18 08:56:09;;;;;;;6.1;2.5;;;;;;;12.67;46.65332;937.7742;;;;
2021/04/18 08:58:35;;;;;;;8.8;3.1;;;;;;;12.79;46.26465;937.8445;;;;
2021/04/18 09:01:00;;;;;;;7.7;3.4;;;;;;;13.02;47.65527;937.7978;;;;
2021/04/18 09:03:26;;;;;;;6.1;3.7;;;;;;;12.99;46.57227;937.8759;;;;
2021/04/18 09:05:51;;;;;;;4.4;2.9;;;;;;;12.91;48.76758;937.8688;;;;
2021/04/18 09:08:17;;;;;;;3.1;2.7;;;;;;;13.01;46.0918;937.8519;;;;
2021/04/18 09:10:44;;;;;;;6.8;3.8;;;;;;;13.06;46.29199;937.8794;;;;
2021/04/18 09:13:09;;;;;;;5.3;3.6;;;;;;;12.27;48.55859;937.8593;;;;
2021/04/18 09:15:48;;;;;;;8.5;3;;;;;;;11.81;47.79785;937.8781;;;;
2021/04/18 09:18:13;;;;;;;5.8;3.4;;;;;;;11.33;49.33398;937.8244;;;;
2021/04/18 09:20:39;;;;;;;4;2.4;;;;;;;10.98;49.82129;937.7515;;;;
2021/04/18 09:23:03;;;;;;;7.2;3.7;;;;;;;10.93;51.24414;937.8013;;;;
2021/04/18 09:25:29;;;;;;;6.5;3.5;;;;;;;11.08;51.68359;937.8153;;;;
2021/04/18 09:27:55;;;;;;;6.7;3.5;;;;;;;11.12;52.3291;937.8123;;;;
2021/04/18 09:30:23;;;;;;;4.7;2.8;;;;;;;11.01;52.50977;937.8568;;;;
2021/04/18 09:32:49;;;;;;;5.1;3.7;;;;;;;11.37;50.91797;937.8397;;;;
2021/04/18 09:35:14;;;;;;;6.9;3;;;;;;;11.41;50.58008;937.8379;;;;
2021/04/18 09:37:42;;;;;;;6.8;3.4;;;;;;;11.25;50.50293;937.8359;;;;
2021/04/18 09:40:08;;;;;;;4.7;2.9;;;;;;;11.58;49.69531;937.8347;;;;
2021/04/18 09:42:35;;;;;;;4.8;3.1;;;;;;;11.07;51.92188;937.8256;;;;
2021/04/18 09:45:00;;;;;;;3.9;2.9;;;;;;;11.01;53.33301;937.8539;;;;
2021/04/18 09:47:25;;;;;;;3;2.7;;;;;;;11.1;52.83008;937.8976;;;;
2021/04/18 09:49:52;;;;;;;5.6;2.7;;;;;;;10.89;53.53418;937.8464;;;;
2021/04/18 09:52:15;;;;;;;4;2.8;;;;;;;11.09;53.46875;937.8433;;;;
2021/04/18 09:54:42;;;;;;;6.7;3.2;;;;;;;10.99;54.31348;937.7993;;;;
2021/04/18 09:57:07;;;;;;;4.1;2.8;;;;;;;10.72;53.34277;937.8855;;;;
2021/04/18 09:59:59;;;;;;;4.2;2.9;;;;;;;10.64;53.95996;937.9127;;;;
2021/04/18 10:02:24;;;;;;;11.9;3.7;;;;;;;10.6;53.91016;937.8571;;;;
2021/04/18 10:04:49;;;;;;;5.6;3.3;;;;;;;10.81;53.63965;937.8591;;;;
2021/04/18 10:07:14;;;;;;;2.8;2.1;;;;;;;10.65;54.05371;937.822;;;;
2021/04/18 10:09:39;;;;;;;3.1;2.7;;;;;;;10.47;53.25488;937.8766;;;;
2021/04/18 10:12:07;;;;;;;3.4;2.6;;;;;;;10.65;54.25977;937.8976;;;;
2021/04/18 10:14:32;;;;;;;5;3.2;;;;;;;10.78;53.84082;937.87;;;;
2021/04/18 10:16:57;;;;;;;3.9;3.1;;;;;;;10.54;55.53516;937.9448;;;;
2021/04/18 10:19:25;;;;;;;5.5;3.3;;;;;;;10.11;55.46777;937.8834;;;;
2021/04/18 10:21:49;;;;;;;6;3.2;;;;;;;9.95;56.93066;937.9363;;;;
2021/04/18 10:24:14;;;;;;;4.7;3;;;;;;;9.95;56.0752;937.9155;;;;
2021/04/18 10:26:40;;;;;;;6.3;3.5;;;;;;;9.87;56.79395;937.933;;;;
2021/04/18 10:29:06;;;;;;;3.8;3.1;;;;;;;10.1;56.55176;937.9278;;;;
2021/04/18 10:31:35;;;;;;;5.2;3.8;;;;;;;9.93;57.01758;937.9503;;;;
2021/04/18 10:33:59;;;;;;;3.8;3.1;;;;;;;9.9;57.8584;937.9429;;;;
2021/04/18 10:36:24;;;;;;;5.8;3.8;;;;;;;9.8;57.40137;937.9105;;;;
2021/04/18 10:38:49;;;;;;;4.3;3;;;;;;;9.85;57.06543;937.9042;;;;
2021/04/18 10:41:15;;;;;;;3.5;2.9;;;;;;;9.92;55.35352;937.9249;;;;
2021/04/18 10:43:40;;;;;;;3.6;3.3;;;;;;;10.2;55.38965;937.8748;;;;
2021/04/18 10:46:05;;;;;;;6.2;3.2;;;;;;;10.25;56.66309;937.9475;;;;
2021/04/18 10:48:30;;;;;;;5.2;3.3;;;;;;;10.35;56.00195;937.9269;;;;
2021/04/18 10:50:57;;;;;;;5.4;3.4;;;;;;;10.11;55.82227;937.9495;;;;
2021/04/18 10:53:22;;;;;;;7;3.6;;;;;;;9.98;57.59668;937.9557;;;;
2021/04/18 10:55:48;;;;;;;4;3.1;;;;;;;9.78;57.77441;937.9166;;;;
2021/04/18 10:58:15;;;;;;;4.6;2.8;;;;;;;9.86;57.4209;937.9433;;;;
2021/04/18 11:00:39;;;;;;;5.5;3.5;;;;;;;10.12;55.52832;937.9178;;;;
2021/04/18 11:03:04;;;;;;;4.4;3.5;;;;;;;10.55;55.50293;937.8837;;;;
2021/04/18 11:05:31;;;;;;;4.3;3.2;;;;;;;10.61;54.63184;937.8017;;;;
2021/04/18 11:07:56;;;;;;;7.1;3.2;;;;;;;10.43;55.23535;937.8652;;;;
2021/04/18 11:10:21;;;;;;;7.3;3.3;;;;;;;10.7;54.10547;937.8159;;;;
2021/04/18 11:12:47;;;;;;;3.9;3.2;;;;;;;11.04;52.90234;937.8486;;;;
2021/04/18 11:15:12;;;;;;;4.3;3;;;;;;;11.24;53.45215;937.788;;;;
2021/04/18 11:17:38;;;;;;;5.5;3.3;;;;;;;11.22;53.06152;937.7726;;;;
2021/04/18 11:20:02;;;;;;;5;3.2;;;;;;;11.13;52.79883;937.795;;;;
2021/04/18 11:22:28;;;;;;;3.7;3;;;;;;;11.26;51.99219;937.7722;;;;
2021/04/18 11:24:53;;;;;;;6.8;3.5;;;;;;;11.36;52.01563;937.7863;;;;
2021/04/18 11:27:20;;;;;;;5.6;2.9;;;;;;;11.18;52.97656;937.7946;;;;
2021/04/18 11:29:45;;;;;;;4.2;2.7;;;;;;;10.94;52.57031;937.7305;;;;
2021/04/18 11:32:11;;;;;;;3.7;2.9;;;;;;;10.76;53.61035;937.8261;;;;
2021/04/18 11:34:35;;;;;;;3.3;2.7;;;;;;;10.71;52.13086;937.8057;;;;
2021/04/18 11:37:02;;;;;;;5;3.1;;;;;;;10.76;53.75879;937.8387;;;;
2021/04/18 11:39:26;;;;;;;3.8;2.4;;;;;;;10.68;53.09766;937.8333;;;;
2021/04/18 11:41:53;;;;;;;6.2;2.8;;;;;;;10.43;53.15918;937.8937;;;;
2021/04/18 11:44:18;;;;;;;3.9;2.9;;;;;;;10.21;55.50488;937.8752;;;;
2021/04/18 11:46:43;;;;;;;6.9;3.3;;;;;;;10.18;56.37793;937.8698;;;;
2021/04/18 11:49:08;;;;;;;4.1;2.6;;;;;;;10.32;54.60645;937.8893;;;;
2021/04/18 11:51:34;;;;;;;4;3.2;;;;;;;10.57;54.1582;937.8521;;;;
2021/04/18 11:53:59;;;;;;;4.1;3.2;;;;;;;10.27;54.08594;937.8665;;;;
2021/04/18 11:56:25;;;;;;;4.5;3.4;;;;;;;10.21;56.25781;937.8103;;;;
2021/04/18 11:58:50;;;;;;;4.6;3.3;;;;;;;10.18;55.3291;937.8308;;;;
2021/04/18 12:01:17;;;;;;;3.7;3;;;;;;;10.16;55.84082;937.8934;;;;
2021/04/18 12:03:42;;;;;;;3.9;3.1;;;;;;;10.27;54.71387;937.9151;;;;
2021/04/18 12:06:08;;;;;;;5;3.7;;;;;;;10.22;55.55273;937.8708;;;;
2021/04/18 12:08:34;;;;;;;5.1;3.8;;;;;;;10.06;57.43457;937.9299;;;;
2021/04/18 12:10:59;;;;;;;4.7;3.7;;;;;;;9.97;57.65234;937.8959;;;;
2021/04/18 12:13:24;;;;;;;5.8;3.3;;;;;;;9.77;58.94629;937.9411;;;;
2021/04/18 12:15:55;;;;;;;4.5;3.7;;;;;;;9.81;59.8877;937.8982;;;;
2021/04/18 12:18:21;;;;;;;4.2;3.3;;;;;;;9.99;58.39453;937.8126;;;;
2021/04/18 12:20:46;;;;;;;4.2;3;;;;;;;10.18;58.5127;937.8801;;;;
2021/04/18 12:23:12;;;;;;;6.3;3.9;;;;;;;9.79;59.26953;937.8452;;;;
2021/04/18 12:25:37;;;;;;;6.7;3.5;;;;;;;9.66;59.19531;937.8699;;;;
2021/04/18 12:28:04;;;;;;;5;4.1;;;;;;;9.72;59.06543;937.9063;;;;
2021/04/18 12:30:29;;;;;;;4.3;3.8;;;;;;;9.61;59.81445;937.8558;;;;
2021/04/18 12:32:55;;;;;;;5.2;3.6;;;;;;;9.71;59.95215;937.8633;;;;
2021/04/18 12:35:20;;;;;;;4.9;3.7;;;;;;;9.54;59.32617;937.7814;;;;
2021/04/18 12:37:46;;;;;;;4.8;3.1;;;;;;;9.3;60.6709;937.7941;;;;
2021/04/18 12:40:12;;;;;;;3.8;3.2;;;;;;;9.49;59.375;937.7872;;;;
2021/04/18 12:42:38;;;;;;;5;3.3;;;;;;;9.55;60.52344;937.8483;;;;
2021/04/18 12:45:03;;;;;;;6.5;4.1;;;;;;;9.76;59.20898;937.8083;;;;
2021/04/18 12:47:28;;;;;;;5.4;3.8;;;;;;;9.95;58.94824;937.7978;;;;
2021/04/18 12:49:55;;;;;;;6.6;3.8;;;;;;;9.75;59.99316;937.8217;;;;
2021/04/18 12:52:19;;;;;;;4.6;3.5;;;;;;;9.6;59.36914;937.8061;;;;
2021/04/18 12:54:44;;;;;;;4.4;3.4;;;;;;;9.77;59.27734;937.8895;;;;
2021/04/18 12:57:15;;;;;;;7;3.5;;;;;;;10;57.2793;937.8653;;;;
2021/04/18 12:59:34;;;;;;;4.1;3.2;;;;;;;9.98;58.10938;937.8571;;;;
2021/04/18 13:02:01;;;;;;;3.6;2.7;;;;;;;9.85;58.2627;937.8516;;;;
2021/04/18 13:04:26;;;;;;;7.4;3.3;;;;;;;9.85;58.59277;937.8549;;;;
2021/04/18 13:06:52;;;;;;;4.3;2.9;;;;;;;10.04;57.54785;937.8494;;;;
2021/04/18 13:09:17;;;;;;;3.6;3;;;;;;;9.97;59.08887;937.8005;;;;
2021/04/18 13:11:43;;;;;;;4.5;3.3;;;;;;;9.75;59.26465;937.8583;;;;
2021/04/18 13:14:08;;;;;;;4.1;2.8;;;;;;;9.58;59.20703;937.8361;;;;
2021/04/18 13:16:33;;;;;;;7.7;3.4;;;;;;;9.49;58.97656;937.8516;;;;
2021/04/18 13:18:59;;;;;;;13.1;3.7;;;;;;;9.45;59.56445;937.7382;;;;
2021/04/18 13:21:24;;;;;;;6.4;3.6;;;;;;;9.28;58.30078;937.7533;;;;
2021/04/18 13:23:54;;;;;;;9;4;;;;;;;9.28;59.5293;937.7953;;;;
2021/04/18 13:26:14;;;;;;;6.5;4.1;;;;;;;9.19;60.83691;937.8494;;;;
2021/04/18 13:28:41;;;;;;;8;4.8;;;;;;;9.18;59.66309;937.7667;;;;
2021/04/18 13:31:06;;;;;;;7.5;5.1;;;;;;;9.3;59.86328;937.8401;;;;
2021/04/18 13:33:32;;;;;;;7.2;4.1;;;;;;;9.42;59.76367;937.7728;;;;
2021/04/18 13:35:57;;;;;;;10.2;4.9;;;;;;;9.27;61.14551;937.8301;;;;
2021/04/18 13:38:23;;;;;;;5;4.5;;;;;;;9.53;59.92676;937.7789;;;;
2021/04/18 13:40:48;;;;;;;7.7;4.2;;;;;;;9.67;59.13867;937.8024;;;;
2021/04/18 13:43:15;;;;;;;6.2;3.2;;;;;;;9.63;59.23438;937.7001;;;;
2021/04/18 13:45:39;;;;;;;4.1;3.7;;;;;;;9.63;59.05273;937.743;;;;
2021/04/18 13:48:05;;;;;;;7;4.6;;;;;;;9.61;59.2793;937.6845;;;;
2021/04/18 13:50:31;;;;;;;7;4;;;;;;;9.35;60.58691;937.6953;;;;
2021/04/18 13:52:57;;;;;;;7.3;4.5;;;;;;;9.42;60.25391;937.7491;;;;
2021/04/18 13:55:22;;;;;;;9.1;4.7;;;;;;;9.48;59.61426;937.7275;;;;
2021/04/18 13:57:49;;;;;;;5.3;3.6;;;;;;;9.53;59.24609;937.7162;;;;
2021/04/18 14:00:24;;;;;;;6.8;4;;;;;;;9.56;59.40918;937.6967;;;;
2021/04/18 14:02:49;;;;;;;6.5;4;;;;;;;9.8;57.98242;937.7609;;;;
2021/04/18 14:05:15;;;;;;;8.4;3.7;;;;;;;9.91;56.70898;937.7458;;;;
2021/04/18 14:07:41;;;;;;;5.5;3.7;;;;;;;10;56.86914;937.7523;;;;
2021/04/18 14:10:06;;;;;;;5.1;3.5;;;;;;;10.1;56.49414;937.7322;;;;
2021/04/18 14:12:31;;;;;;;6.1;4.2;;;;;;;10.13;57.5127;937.7022;;;;
2021/04/18 14:14:57;;;;;;;5.9;3.9;;;;;;;10.12;57.55762;937.6799;;;;
2021/04/18 14:17:25;;;;;;;6.1;4.3;;;;;;;9.68;59.36719;937.7111;;;;
2021/04/18 14:19:56;;;;;;;9.8;4.9;;;;;;;9.68;59.32129;937.7238;;;;
2021/04/18 14:22:17;;;;;;;7.3;4.9;;;;;;;9.48;60.55957;937.7211;;;;
2021/04/18 14:24:43;;;;;;;5.6;3.7;;;;;;;9.2;60.91895;937.6208;;;;
2021/04/18 14:27:09;;;;;;;6;4;;;;;;;9.14;60.63574;937.7478;;;;
2021/04/18 14:29:34;;;;;;;5.4;4.3;;;;;;;9.29;61.22656;937.6373;;;;
2021/04/18 14:32:00;;;;;;;7;5;;;;;;;9.19;61.59863;937.6214;;;;
2021/04/18 14:34:25;;;;;;;8.4;5.2;;;;;;;9.01;61.10742;937.6504;;;;